createdAt,value
2019-02-12T00:00:30.674Z,8.93
2019-02-12T00:02:59.673Z,9.48
2019-02-12T00:05:28.561Z,12.03
2019-02-12T00:07:57.366Z,8.20
2019-02-12T00:10:26.230Z,6.53
2019-02-12T00:12:55.067Z,4.97
2019-02-12T00:15:23.894Z,8.60
2019-02-12T00:17:52.722Z,7.28
2019-02-12T00:20:21.570Z,10.70
2019-02-12T00:22:50.567Z,10.75
2019-02-12T00:25:19.453Z,9.73
2019-02-12T00:27:48.283Z,3.20
2019-02-12T00:30:17.173Z,7.05
2019-02-12T00:32:45.942Z,11.53
2019-02-12T00:35:14.738Z,9.15
2019-02-12T00:37:43.609Z,5.78
2019-02-12T00:40:12.511Z,11.20
2019-02-12T00:42:41.501Z,9.63
2019-02-12T00:45:10.618Z,5.58
2019-02-12T00:47:39.390Z,13.93
2019-02-12T00:50:09.243Z,7.25
2019-02-12T00:52:38.105Z,4.70
2019-02-12T00:55:07.115Z,9.33
2019-02-12T00:57:35.963Z,5.65
2019-02-12T01:00:06.570Z,11.40
2019-02-12T01:02:35.487Z,11.65
2019-02-12T01:05:04.672Z,10.88
2019-02-12T01:07:33.488Z,4.10
2019-02-12T01:10:02.462Z,2.62
2019-02-12T01:12:31.339Z,4.92
2019-02-12T01:15:00.214Z,6.90
2019-02-12T01:17:29.123Z,5.87
2019-02-12T01:19:57.952Z,7.03
2019-02-12T01:22:26.917Z,2.77
2019-02-12T01:24:56.005Z,7.33
2019-02-12T01:27:24.884Z,2.15
2019-02-12T01:29:53.762Z,8.78
2019-02-12T01:32:22.644Z,8.90
2019-02-12T01:34:51.506Z,3.45
2019-02-12T01:37:20.368Z,6.72
2019-02-12T01:39:49.278Z,4.97
2019-02-12T01:42:18.168Z,7.15
2019-02-12T01:44:47.158Z,9.48
2019-02-12T01:47:15.999Z,9.30
2019-02-12T01:49:44.784Z,6.35
2019-02-12T01:52:13.705Z,6.42
2019-02-12T01:54:42.539Z,7.83
2019-02-12T01:57:11.438Z,6.58
2019-02-12T01:59:40.290Z,11.78
2019-02-12T02:02:09.043Z,5.62
2019-02-12T02:04:38.059Z,3.75
2019-02-12T02:07:06.928Z,2.55
2019-02-12T02:09:35.840Z,0.98
2019-02-12T02:12:04.664Z,3.33
2019-02-12T02:14:33.719Z,5.17
2019-02-12T02:17:02.492Z,2.87
2019-02-12T02:19:31.240Z,3.50
2019-02-12T02:22:00.072Z,3.52
2019-02-12T02:24:28.926Z,6.37
2019-02-12T02:26:57.699Z,1.72
2019-02-12T02:29:26.575Z,3.42
2019-02-12T02:31:55.433Z,5.42
2019-02-12T02:34:24.312Z,7.25
2019-02-12T02:36:53.152Z,5.87
2019-02-12T02:39:21.902Z,8.38
2019-02-12T02:41:50.677Z,3.27
2019-02-12T02:44:19.462Z,4.35
2019-02-12T02:46:48.383Z,2.85
2019-02-12T02:49:17.143Z,5.30
2019-02-12T02:51:53.774Z,8.85
2019-02-12T02:54:16.437Z,5.28
2019-02-12T02:56:45.276Z,4.53
2019-02-12T02:59:14.136Z,3.05
2019-02-12T03:01:42.965Z,4.10
2019-02-12T03:04:11.886Z,3.58
2019-02-12T03:06:40.812Z,3.85
2019-02-12T03:09:09.647Z,7.40
2019-02-12T03:11:38.631Z,8.88
2019-02-12T03:14:07.561Z,4.08
2019-02-12T03:16:36.417Z,6.33
2019-02-12T03:19:05.464Z,2.27
2019-02-12T03:21:34.262Z,6.50
2019-02-12T03:24:03.117Z,1.20
2019-02-12T03:26:32.075Z,2.67
2019-02-12T03:29:00.885Z,3.12
2019-02-12T03:31:29.894Z,3.50
2019-02-12T03:33:58.754Z,2.50
2019-02-12T03:36:27.598Z,3.12
2019-02-12T03:38:56.395Z,5.65
2019-02-12T03:41:25.261Z,3.10
2019-02-12T03:43:54.039Z,5.00
2019-02-12T03:46:23.083Z,3.47
2019-02-12T03:48:51.966Z,2.95
2019-02-12T03:51:20.756Z,7.65
2019-02-12T03:53:49.615Z,1.85
2019-02-12T03:56:18.351Z,8.98
2019-02-12T03:58:47.336Z,6.92
2019-02-12T04:01:16.207Z,2.42
2019-02-12T04:03:46.017Z,5.72
2019-02-12T04:06:14.808Z,3.55
2019-02-12T04:08:43.772Z,5.85
2019-02-12T04:11:12.541Z,6.28
2019-02-12T04:13:41.356Z,4.72
2019-02-12T04:16:10.207Z,3.58
2019-02-12T04:18:39.183Z,7.62
2019-02-12T04:21:07.948Z,3.27
2019-02-12T04:23:36.808Z,3.80
2019-02-12T04:26:05.708Z,4.97
2019-02-12T04:28:37.586Z,6.22
2019-02-12T04:31:06.468Z,2.20
2019-02-12T04:33:35.405Z,1.62
2019-02-12T04:36:04.238Z,1.50
2019-02-12T04:38:33.038Z,4.33
2019-02-12T04:41:01.788Z,8.63
2019-02-12T04:43:30.664Z,2.75
2019-02-12T04:45:59.517Z,2.75
2019-02-12T04:48:28.281Z,10.38
2019-02-12T04:50:57.060Z,9.30
2019-02-12T04:53:25.831Z,13.05
2019-02-12T04:55:55.382Z,5.30
2019-02-12T04:58:24.207Z,12.37
2019-02-12T05:00:52.963Z,4.47
2019-02-12T05:03:21.788Z,7.97
2019-02-12T05:05:51.079Z,8.13
2019-02-12T05:08:19.952Z,3.58
2019-02-12T05:10:56.849Z,10.75
2019-02-12T05:13:25.678Z,3.52
2019-02-12T05:15:54.491Z,3.67
2019-02-12T05:18:23.383Z,8.80
2019-02-12T05:20:52.227Z,5.47
2019-02-12T05:23:21.153Z,3.15
2019-02-12T05:25:50.034Z,5.40
2019-02-12T05:28:19.062Z,5.20
2019-02-12T05:30:47.968Z,4.33
2019-02-12T05:33:16.771Z,5.08
2019-02-12T05:35:45.545Z,4.78
2019-02-12T05:38:14.803Z,6.28
2019-02-12T05:40:43.615Z,5.05
2019-02-12T05:43:12.794Z,4.67
2019-02-12T05:45:41.579Z,7.72
2019-02-12T05:48:18.685Z,5.42
2019-02-12T05:50:42.888Z,4.45
2019-02-12T05:53:11.699Z,7.92
2019-02-12T05:55:40.454Z,2.47
2019-02-12T05:58:09.307Z,8.48
2019-02-12T06:00:38.307Z,4.65
2019-02-12T06:03:07.293Z,5.47
2019-02-12T06:05:36.037Z,3.22
2019-02-12T06:08:05.086Z,7.70
2019-02-12T06:10:34.204Z,6.72
2019-02-12T06:13:02.971Z,3.02
2019-02-12T06:15:31.857Z,8.90
2019-02-12T06:18:00.884Z,8.28
2019-02-12T06:20:29.747Z,13.25
2019-02-12T06:23:03.760Z,9.20
2019-02-12T06:25:29.361Z,8.05
2019-02-12T06:27:58.331Z,9.73
2019-02-12T06:30:27.138Z,9.48
2019-02-12T06:32:56.067Z,13.93
2019-02-12T06:35:25.092Z,9.95
2019-02-12T06:37:53.869Z,13.40
2019-02-12T06:40:23.959Z,7.42
2019-02-12T06:42:52.906Z,7.05
2019-02-12T06:45:21.815Z,7.80
2019-02-12T06:47:50.858Z,6.80
2019-02-12T06:50:19.799Z,4.62
2019-02-12T06:52:48.627Z,4.55
2019-02-12T06:55:17.521Z,11.80
2019-02-12T06:57:46.559Z,3.62
2019-02-12T07:00:34.671Z,8.43
2019-02-12T07:03:16.965Z,7.45
2019-02-12T07:06:26.305Z,10.80
2019-02-12T07:09:06.834Z,17.77
2019-02-12T07:12:01.221Z,10.58
2019-02-12T07:14:56.797Z,13.85
2019-02-12T07:17:51.038Z,9.23
2019-02-12T07:20:59.746Z,11.15
2019-02-12T07:24:09.000Z,9.98
2019-02-12T07:27:33.965Z,10.85
2019-02-12T07:30:19.564Z,9.25
2019-02-12T07:33:14.990Z,11.60
2019-02-12T07:36:23.613Z,9.28
2019-02-12T07:43:11.089Z,6.20
2019-02-12T07:46:34.921Z,8.33
2019-02-12T07:49:38.468Z,12.70
2019-02-12T07:56:41.200Z,9.53
2019-02-12T08:11:13.517Z,5.70
2019-02-12T08:14:56.601Z,7.28
2019-02-12T08:18:23.132Z,12.85
2019-02-12T08:21:32.703Z,10.98
2019-02-12T08:24:51.893Z,5.58
2019-02-12T08:27:46.503Z,6.33
2019-02-12T08:30:49.125Z,3.50
2019-02-12T08:33:59.298Z,10.03
2019-02-12T08:37:10.384Z,12.13
2019-02-12T08:40:23.220Z,14.03
2019-02-12T08:43:24.866Z,12.85
2019-02-12T08:46:19.416Z,6.53
2019-02-12T08:49:41.607Z,7.78
2019-02-12T08:52:53.736Z,10.00
2019-02-12T08:55:50.594Z,5.83
2019-02-12T08:59:09.568Z,9.93
2019-02-12T09:02:11.012Z,5.78
2019-02-12T09:04:56.465Z,9.98
2019-02-12T09:08:01.009Z,7.83
2019-02-12T09:10:53.642Z,7.53
2019-02-12T09:13:53.110Z,12.25
2019-02-12T09:17:12.033Z,4.22
2019-02-12T09:20:21.339Z,15.43
2019-02-12T09:26:59.002Z,5.47
2019-02-12T09:30:45.155Z,10.90
2019-02-12T09:34:10.490Z,9.65
2019-02-12T09:40:48.708Z,18.52
2019-02-12T09:43:46.069Z,5.80
2019-02-12T09:46:43.434Z,12.03
2019-02-12T09:53:39.931Z,9.95
2019-02-12T10:08:42.854Z,11.08
2019-02-12T10:11:49.300Z,6.47
2019-02-12T10:18:13.429Z,9.00
2019-02-12T10:21:05.453Z,6.40
2019-02-12T10:24:29.710Z,12.85
2019-02-12T10:27:42.980Z,13.58
2019-02-12T10:30:23.459Z,11.30
2019-02-12T10:33:19.307Z,6.20
2019-02-12T10:35:53.412Z,14.45
2019-02-12T10:38:22.375Z,9.85
2019-02-12T10:40:51.674Z,9.93
2019-02-12T10:43:20.859Z,18.57
2019-02-12T10:45:50.006Z,14.87
2019-02-12T10:48:38.258Z,15.75
2019-02-12T10:51:07.560Z,7.53
2019-02-12T10:53:36.631Z,14.40
2019-02-12T10:56:27.741Z,13.13
2019-02-12T10:58:56.777Z,11.40
2019-02-12T11:01:25.828Z,13.18
2019-02-12T11:03:55.179Z,14.75
2019-02-12T11:06:24.065Z,20.40
2019-02-12T11:08:53.197Z,7.35
2019-02-12T11:11:22.375Z,11.57
2019-02-12T11:13:51.296Z,8.88
2019-02-12T11:16:20.437Z,7.53
2019-02-12T11:18:51.496Z,7.12
2019-02-12T11:21:22.731Z,8.35
2019-02-12T11:23:54.781Z,5.35
2019-02-12T11:26:50.573Z,9.13
2019-02-12T11:29:40.660Z,11.53
2019-02-12T11:32:12.361Z,9.35
2019-02-12T11:34:49.291Z,7.87
2019-02-12T11:37:21.352Z,6.62
2019-02-12T11:39:50.400Z,5.55
2019-02-12T11:42:19.775Z,5.47
2019-02-12T11:44:49.245Z,9.70
2019-02-12T11:47:18.465Z,7.22
2019-02-12T11:49:54.834Z,6.33
2019-02-12T11:52:24.607Z,4.90
2019-02-12T11:54:53.537Z,6.67
2019-02-12T11:57:22.698Z,10.72
2019-02-12T12:00:14.281Z,6.12
2019-02-12T12:02:43.818Z,6.28
2019-02-12T12:05:16.162Z,4.35
2019-02-12T12:07:48.412Z,7.83
2019-02-12T12:10:18.061Z,9.25
2019-02-12T12:12:47.315Z,8.48
2019-02-12T12:15:16.752Z,6.05
2019-02-12T12:17:55.009Z,4.70
2019-02-12T12:20:24.208Z,8.15
2019-02-12T12:22:53.955Z,7.72
2019-02-12T12:25:23.928Z,7.35
2019-02-12T12:27:53.338Z,3.25
2019-02-12T12:30:22.672Z,14.55
2019-02-12T12:32:52.116Z,5.72
2019-02-12T12:35:24.189Z,15.55
2019-02-12T12:37:53.467Z,4.33
2019-02-12T12:40:25.171Z,10.25
2019-02-12T12:43:02.040Z,8.43
2019-02-12T12:45:53.798Z,5.45
2019-02-12T12:48:42.180Z,4.70
2019-02-12T12:51:11.633Z,8.23
2019-02-12T12:54:13.211Z,7.50
2019-02-12T12:56:53.729Z,6.58
2019-02-12T12:59:22.660Z,3.47
2019-02-12T13:02:11.047Z,4.87
2019-02-12T13:04:42.000Z,4.78
2019-02-12T13:07:11.967Z,3.35
2019-02-12T13:12:54.144Z,5.22
2019-02-12T13:15:50.065Z,4.30
2019-02-12T13:18:20.813Z,8.13
2019-02-12T13:20:49.771Z,6.92
2019-02-12T13:23:18.856Z,4.47
2019-02-12T13:25:47.703Z,6.17
2019-02-12T13:28:16.741Z,4.90
2019-02-12T13:30:46.721Z,4.45
2019-02-12T13:33:24.072Z,3.45
2019-02-12T13:35:53.282Z,3.90
2019-02-12T13:38:28.378Z,6.08
2019-02-12T13:40:58.317Z,6.65
2019-02-12T13:44:04.574Z,7.55
2019-02-12T13:46:28.178Z,5.90
2019-02-12T13:49:01.329Z,5.12
2019-02-12T13:51:30.723Z,4.62
2019-02-12T13:54:36.206Z,2.50
2019-02-12T13:57:05.102Z,4.95
2019-02-12T13:59:40.814Z,3.12
2019-02-12T14:02:10.150Z,5.42
2019-02-12T14:04:42.699Z,7.25
2019-02-12T14:07:15.475Z,3.75
2019-02-12T14:09:44.608Z,13.75
2019-02-12T14:12:13.592Z,8.80
2019-02-12T14:14:42.547Z,8.30
2019-02-12T14:17:12.633Z,5.28
2019-02-12T14:19:41.536Z,7.30
2019-02-12T14:22:10.530Z,4.30
2019-02-12T14:24:39.470Z,6.67
2019-02-12T14:27:09.379Z,9.50
2019-02-12T14:29:39.400Z,1.25
2019-02-12T14:32:08.492Z,7.05
2019-02-12T14:34:37.330Z,3.27
2019-02-12T14:37:06.268Z,5.65
2019-02-12T14:39:35.192Z,5.05
2019-02-12T14:42:06.545Z,2.60
2019-02-12T14:44:35.480Z,3.90
2019-02-12T14:47:04.603Z,7.55
2019-02-12T14:49:33.552Z,4.47
2019-02-12T14:52:05.847Z,4.92
2019-02-12T14:54:34.968Z,3.87
2019-02-12T14:57:03.866Z,7.45
2019-02-12T14:59:32.871Z,3.60
2019-02-12T15:02:02.624Z,7.45
2019-02-12T15:04:31.751Z,3.77
2019-02-12T15:07:00.759Z,12.90
2019-02-12T15:09:29.615Z,2.75
2019-02-12T15:11:58.589Z,4.50
2019-02-12T15:14:27.625Z,1.67
2019-02-12T15:16:56.684Z,4.97
2019-02-12T15:19:25.797Z,10.38
2019-02-12T15:21:55.166Z,4.25
2019-02-12T15:24:24.541Z,13.88
2019-02-12T15:26:53.595Z,3.95
2019-02-12T15:29:22.920Z,7.10
2019-02-12T15:31:52.731Z,11.95
2019-02-12T15:34:22.398Z,11.63
2019-02-12T15:36:51.594Z,9.08
2019-02-12T15:39:20.809Z,5.15
2019-02-12T15:41:50.310Z,4.78
2019-02-12T15:44:19.501Z,3.60
2019-02-12T15:46:48.577Z,6.10
2019-02-12T15:49:17.984Z,5.00
2019-02-12T15:51:47.671Z,15.15
2019-02-12T15:54:16.955Z,2.98
2019-02-12T15:56:46.098Z,9.05
2019-02-12T15:59:16.394Z,3.52
2019-02-12T16:01:47.067Z,7.67
2019-02-12T16:04:16.741Z,20.55
2019-02-12T16:06:45.767Z,3.83
2019-02-12T16:09:17.733Z,6.65
2019-02-12T16:11:47.434Z,6.90
2019-02-12T16:14:20.494Z,4.15
2019-02-12T16:16:52.028Z,5.28
2019-02-12T16:19:21.604Z,7.33
2019-02-12T16:21:55.828Z,7.37
2019-02-12T16:24:22.928Z,9.70
2019-02-12T16:26:52.517Z,5.53
2019-02-12T16:29:21.971Z,5.53
2019-02-12T16:31:51.471Z,4.60
2019-02-12T16:34:25.659Z,4.85
2019-02-12T16:36:58.259Z,11.05
2019-02-12T16:39:28.155Z,7.47
2019-02-12T16:41:58.238Z,8.63
2019-02-12T16:44:30.243Z,6.80
2019-02-12T16:46:59.954Z,7.53
2019-02-12T16:49:52.144Z,9.15
2019-02-12T16:52:22.108Z,7.62
2019-02-12T16:57:44.159Z,4.22
2019-02-12T17:00:15.908Z,6.67
2019-02-12T17:02:46.650Z,6.00
2019-02-12T17:09:06.158Z,4.87
2019-02-12T17:11:35.111Z,8.98
2019-02-12T17:14:04.036Z,4.22
2019-02-12T17:16:33.125Z,4.70
2019-02-12T17:19:02.205Z,6.75
2019-02-12T17:21:31.164Z,7.30
2019-02-12T17:24:00.087Z,9.55
2019-02-12T17:26:29.153Z,10.78
2019-02-12T17:28:58.278Z,6.05
2019-02-12T17:31:27.113Z,5.62
2019-02-12T17:33:56.103Z,7.25
2019-02-12T17:36:25.191Z,10.75
2019-02-12T17:38:54.124Z,7.10
2019-02-12T17:41:23.063Z,9.55
2019-02-12T17:43:52.088Z,11.00
2019-02-12T17:46:21.039Z,7.70
2019-02-12T17:48:51.426Z,8.88
2019-02-12T17:51:21.405Z,8.23
2019-02-12T17:53:51.935Z,8.88
2019-02-12T17:56:24.893Z,10.38
2019-02-12T17:58:52.838Z,7.60
2019-02-12T18:01:21.885Z,5.95
2019-02-12T18:03:50.863Z,7.08
2019-02-12T18:06:21.129Z,8.48
2019-02-12T18:08:51.339Z,16.05
2019-02-12T18:11:23.401Z,12.95
2019-02-12T18:13:52.401Z,8.60
2019-02-12T18:16:21.480Z,18.10
2019-02-12T18:18:50.423Z,14.60
2019-02-12T18:21:19.532Z,18.05
2019-02-12T18:23:50.676Z,13.22
2019-02-12T18:26:19.911Z,11.85
2019-02-12T18:28:48.999Z,10.05
2019-02-12T18:31:17.975Z,13.68
2019-02-12T18:33:47.317Z,9.90
2019-02-12T18:36:18.623Z,15.08
2019-02-12T18:38:50.121Z,12.78
2019-02-12T18:41:19.338Z,19.23
2019-02-12T18:43:48.375Z,23.05
2019-02-12T18:46:19.907Z,15.88
2019-02-12T18:51:58.368Z,16.95
2019-02-12T18:54:28.537Z,12.58
2019-02-12T18:57:01.700Z,14.80
2019-02-12T18:59:54.540Z,12.25
2019-02-12T19:03:24.689Z,13.50
2019-02-12T19:06:00.176Z,14.60
2019-02-12T19:08:29.208Z,13.25
2019-02-12T19:11:01.159Z,12.15
2019-02-12T19:13:30.296Z,14.95
2019-02-12T19:16:42.993Z,14.87
2019-02-12T19:19:15.045Z,14.93
2019-02-12T19:22:06.184Z,18.82
2019-02-12T19:24:35.424Z,18.40
2019-02-12T19:27:04.817Z,19.62
2019-02-12T19:29:34.037Z,21.68
2019-02-12T19:32:30.212Z,21.95
2019-02-12T19:35:51.925Z,14.95
2019-02-12T19:38:20.940Z,23.27
2019-02-12T19:40:50.530Z,20.05
2019-02-12T19:43:37.397Z,20.90
2019-02-12T19:46:54.310Z,19.80
2019-02-12T19:53:20.533Z,24.82
2019-02-12T19:55:52.076Z,19.40
2019-02-12T20:01:30.974Z,19.20
2019-02-12T20:04:00.798Z,27.73
2019-02-12T20:06:32.717Z,24.92
2019-02-12T20:09:49.360Z,27.55
2019-02-12T20:16:07.128Z,18.75
2019-02-12T20:19:05.132Z,23.65
2019-02-12T20:21:34.565Z,24.70
2019-02-12T20:24:06.742Z,25.48
2019-02-12T20:27:17.894Z,21.62
2019-02-12T20:29:46.430Z,25.65
2019-02-12T20:32:16.085Z,18.67
2019-02-12T20:34:45.298Z,25.77
2019-02-12T20:37:20.393Z,23.32
2019-02-12T20:39:49.532Z,26.55
2019-02-12T20:42:19.322Z,25.35
2019-02-12T20:44:48.807Z,25.27
2019-02-12T20:48:15.026Z,23.50
2019-02-12T20:51:09.994Z,23.05
2019-02-12T20:53:39.326Z,25.15
2019-02-12T20:59:02.196Z,22.05
2019-02-12T21:01:48.948Z,22.52
2019-02-12T21:04:41.526Z,26.42
2019-02-12T21:07:10.710Z,21.00
2019-02-12T21:09:39.957Z,27.25
2019-02-12T21:12:46.277Z,19.70
2019-02-12T21:15:14.972Z,23.47
2019-02-12T21:17:54.022Z,28.57
2019-02-12T21:20:23.282Z,25.05
2019-02-12T21:22:52.431Z,26.55
2019-02-12T21:29:42.635Z,20.62
2019-02-12T21:32:38.359Z,24.57
2019-02-12T21:35:23.667Z,23.12
2019-02-12T21:38:00.187Z,25.15
2019-02-12T21:40:30.418Z,22.87
2019-02-12T21:42:59.490Z,23.90
2019-02-12T21:45:28.763Z,26.23
2019-02-12T21:48:34.433Z,28.80
2019-02-12T21:50:58.778Z,29.72
2019-02-12T21:53:27.751Z,31.15
2019-02-12T21:55:56.895Z,23.47
2019-02-12T21:58:26.145Z,30.52
2019-02-12T22:00:55.307Z,28.57
2019-02-12T22:03:24.393Z,27.52
2019-02-12T22:05:53.403Z,25.05
2019-02-12T22:08:22.583Z,28.40
2019-02-12T22:10:55.114Z,26.85
2019-02-12T22:13:24.080Z,26.42
2019-02-12T22:15:53.055Z,25.72
2019-02-12T22:21:11.388Z,26.10
2019-02-12T22:23:41.040Z,24.67
2019-02-12T22:26:10.015Z,26.33
2019-02-12T22:28:39.157Z,28.17
2019-02-12T22:31:12.160Z,22.85
2019-02-12T22:33:41.961Z,25.90
2019-02-12T22:36:10.925Z,27.82
2019-02-12T22:38:45.595Z,26.15
2019-02-12T22:45:05.768Z,28.23
2019-02-12T22:47:38.437Z,24.95
2019-02-12T22:50:07.999Z,25.32
2019-02-12T22:52:36.856Z,35.48
2019-02-12T22:55:05.927Z,27.20
2019-02-12T22:57:34.702Z,29.15
2019-02-12T23:00:04.267Z,27.45
2019-02-12T23:02:33.134Z,26.68
2019-02-12T23:05:01.912Z,38.85
2019-02-12T23:07:30.858Z,31.85
2019-02-12T23:09:59.671Z,26.23
2019-02-12T23:12:28.527Z,28.45
2019-02-12T23:14:57.294Z,25.95
2019-02-12T23:17:26.095Z,26.80
2019-02-12T23:19:54.946Z,30.88
2019-02-12T23:22:23.934Z,30.65
2019-02-12T23:24:52.877Z,26.75
2019-02-12T23:27:21.725Z,28.95
2019-02-12T23:29:50.565Z,29.72
2019-02-12T23:32:19.359Z,27.70
2019-02-12T23:34:48.246Z,30.05
2019-02-12T23:37:17.026Z,30.08
2019-02-12T23:39:45.934Z,26.62
2019-02-12T23:42:14.805Z,29.30
2019-02-12T23:44:43.634Z,26.02
2019-02-12T23:47:12.491Z,31.68
2019-02-12T23:49:41.260Z,27.20
2019-02-12T23:52:10.093Z,26.17
2019-02-12T23:54:38.850Z,29.00
2019-02-12T23:57:07.682Z,26.23
2019-02-12T23:59:36.487Z,24.90
